createdAt,value
2018-04-16T00:01:41.047Z,55.90
2018-04-16T00:04:07.260Z,62.20
2018-04-16T00:06:33.517Z,49.93
2018-04-16T00:08:59.807Z,48.93
2018-04-16T00:11:25.965Z,58.73
2018-04-16T00:13:52.157Z,48.90
2018-04-16T00:16:18.371Z,50.47
2018-04-16T00:18:44.609Z,50.93
2018-04-16T00:21:10.911Z,49.60
2018-04-16T00:23:37.795Z,48.83
2018-04-16T00:26:04.020Z,43.30
2018-04-16T00:28:30.200Z,45.17
2018-04-16T00:30:57.135Z,46.87
2018-04-16T00:33:29.387Z,43.20
2018-04-16T00:36:15.519Z,46.27
2018-04-16T00:38:48.712Z,44.00
2018-04-16T00:41:21.648Z,48.93
2018-04-16T00:43:54.143Z,51.37
2018-04-16T00:46:26.415Z,42.77
2018-04-16T00:48:58.695Z,41.07
2018-04-16T00:51:31.892Z,47.43
2018-04-16T00:54:17.272Z,41.33
2018-04-16T00:56:50.285Z,47.37
2018-04-16T00:59:22.700Z,49.47
2018-04-16T01:01:55.147Z,46.17
2018-04-16T01:04:27.382Z,51.03
2018-04-16T01:07:00.446Z,46.47
2018-04-16T01:09:32.716Z,46.20
2018-04-16T01:12:04.939Z,49.03
2018-04-16T01:14:37.389Z,48.97
2018-04-16T01:17:09.616Z,50.83
2018-04-16T01:19:42.123Z,49.13
2018-04-16T01:22:15.209Z,47.00
2018-04-16T01:24:48.147Z,45.40
2018-04-16T01:27:20.355Z,62.87
2018-04-16T01:29:52.936Z,46.90
2018-04-16T01:32:25.912Z,48.03
2018-04-16T01:34:58.137Z,45.77
2018-04-16T01:37:30.576Z,48.87
2018-04-16T01:40:03.783Z,41.10
2018-04-16T01:42:36.255Z,41.60
2018-04-16T01:45:09.004Z,40.30
2018-04-16T01:47:41.558Z,41.50
2018-04-16T01:50:13.953Z,45.70
2018-04-16T01:52:46.368Z,41.77
2018-04-16T01:55:18.699Z,49.30
2018-04-16T01:57:51.941Z,49.83
2018-04-16T02:00:24.352Z,48.57
2018-04-16T02:02:56.602Z,46.13
2018-04-16T02:05:29.091Z,39.90
2018-04-16T02:08:02.267Z,40.57
2018-04-16T02:10:34.823Z,45.80
2018-04-16T02:13:07.224Z,45.70
2018-04-16T02:18:42.326Z,46.57
2018-04-16T02:21:15.589Z,46.57
2018-04-16T02:23:47.947Z,42.50
2018-04-16T02:26:20.349Z,40.50
2018-04-16T02:28:53.446Z,46.10
2018-04-16T02:31:26.424Z,43.87
2018-04-16T02:33:58.884Z,45.53
2018-04-16T02:36:31.234Z,38.40
2018-04-16T02:39:03.629Z,49.00
2018-04-16T02:41:35.937Z,45.43
2018-04-16T02:44:09.095Z,44.97
2018-04-16T02:46:41.463Z,46.17
2018-04-16T02:49:13.899Z,46.47
2018-04-16T02:51:47.186Z,45.53
2018-04-16T02:54:19.535Z,39.80
2018-04-16T02:56:51.920Z,40.53
2018-04-16T02:59:24.248Z,46.60
2018-04-16T03:01:56.727Z,55.33
2018-04-16T03:04:29.209Z,56.33
2018-04-16T03:07:02.436Z,48.47
2018-04-16T03:09:39.092Z,46.80
2018-04-16T03:12:12.080Z,48.93
2018-04-16T03:17:44.076Z,45.73
2018-04-16T03:20:31.204Z,53.40
2018-04-16T03:23:03.469Z,38.33
2018-04-16T03:25:35.674Z,45.60
2018-04-16T03:28:08.027Z,40.57
2018-04-16T03:30:40.274Z,44.20
2018-04-16T03:33:12.645Z,43.87
2018-04-16T03:35:44.985Z,44.47
2018-04-16T03:38:18.117Z,47.03
2018-04-16T03:40:50.302Z,45.23
2018-04-16T03:43:22.695Z,48.10
2018-04-16T03:45:55.015Z,48.40
2018-04-16T03:48:36.879Z,47.37
2018-04-16T03:51:09.158Z,51.13
2018-04-16T03:53:50.996Z,61.23
2018-04-16T03:56:17.210Z,50.00
2018-04-16T03:58:43.368Z,55.67
2018-04-16T04:01:09.563Z,52.30
2018-04-16T04:03:35.788Z,62.60
2018-04-16T04:06:02.037Z,60.10
2018-04-16T04:08:28.307Z,55.07
2018-04-16T04:10:54.552Z,54.37
2018-04-16T04:13:20.805Z,49.87
2018-04-16T04:15:46.992Z,46.80
2018-04-16T04:18:13.228Z,46.97
2018-04-16T04:20:39.468Z,47.00
2018-04-16T04:23:18.702Z,59.83
2018-04-16T04:25:57.920Z,59.63
2018-04-16T04:28:37.526Z,65.03
2018-04-16T04:31:04.059Z,61.27
2018-04-16T04:33:30.320Z,63.80
2018-04-16T04:35:56.716Z,63.93
2018-04-16T04:38:22.887Z,62.73
2018-04-16T04:40:49.894Z,64.77
2018-04-16T04:43:16.052Z,57.87
2018-04-16T04:45:42.181Z,56.93
2018-04-16T04:48:08.332Z,63.57
2018-04-16T04:50:35.252Z,64.57
2018-04-16T04:53:01.484Z,59.97
2018-04-16T04:55:27.613Z,59.10
2018-04-16T04:57:53.808Z,55.40
2018-04-16T05:00:19.995Z,71.30
2018-04-16T05:02:46.183Z,63.50
2018-04-16T05:05:12.425Z,66.43
2018-04-16T05:07:38.677Z,63.60
2018-04-16T05:10:04.936Z,63.97
2018-04-16T05:12:31.201Z,66.80
2018-04-16T05:14:57.389Z,59.53
2018-04-16T05:17:23.623Z,59.03
2018-04-16T05:19:49.936Z,60.03
2018-04-16T05:22:16.140Z,69.63
2018-04-16T05:24:43.069Z,59.27
2018-04-16T05:27:10.100Z,63.43
2018-04-16T05:29:36.282Z,56.87
2018-04-16T05:32:03.491Z,61.03
2018-04-16T05:34:29.707Z,63.07
2018-04-16T05:36:55.962Z,65.97
2018-04-16T05:39:22.942Z,58.67
2018-04-16T05:41:49.097Z,57.70
2018-04-16T05:44:15.262Z,59.53
2018-04-16T05:46:42.208Z,53.03
2018-04-16T05:49:09.148Z,55.40
2018-04-16T05:51:36.144Z,55.67
2018-04-16T05:54:04.436Z,49.43
2018-04-16T05:56:30.715Z,61.67
2018-04-16T05:58:58.143Z,62.67
2018-04-16T06:01:24.270Z,70.03
2018-04-16T06:03:50.444Z,60.43
2018-04-16T06:06:16.576Z,60.20
2018-04-16T06:08:42.749Z,59.30
2018-04-16T06:11:08.936Z,65.13
2018-04-16T06:13:35.129Z,66.17
2018-04-16T06:16:01.276Z,63.07
2018-04-16T06:18:27.403Z,61.17
2018-04-16T06:20:53.588Z,69.30
2018-04-16T06:23:20.492Z,61.97
2018-04-16T06:25:46.717Z,59.00
2018-04-16T06:28:12.873Z,59.93
2018-04-16T06:30:40.095Z,62.43
2018-04-16T06:33:06.307Z,69.40
2018-04-16T06:35:32.463Z,69.47
2018-04-16T06:37:58.628Z,62.60
2018-04-16T06:40:25.497Z,71.33
2018-04-16T06:42:51.636Z,64.30
2018-04-16T06:45:17.788Z,66.27
2018-04-16T06:47:43.924Z,62.70
2018-04-16T06:50:10.110Z,57.40
2018-04-16T06:52:36.287Z,63.53
2018-04-16T06:55:02.448Z,63.63
2018-04-16T06:57:28.583Z,56.00
2018-04-16T06:59:54.753Z,63.00
2018-04-16T07:02:20.928Z,63.73
2018-04-16T07:04:47.093Z,63.73
2018-04-16T07:07:13.263Z,61.07
2018-04-16T07:09:40.192Z,68.77
2018-04-16T07:12:06.413Z,61.00
2018-04-16T07:14:32.574Z,59.87
2018-04-16T07:16:58.847Z,56.30
2018-04-16T07:19:25.013Z,57.70
2018-04-16T07:21:51.259Z,58.37
2018-04-16T07:24:17.406Z,60.33
2018-04-16T07:26:43.588Z,65.07
2018-04-16T07:29:09.758Z,66.50
2018-04-16T07:31:35.921Z,61.80
2018-04-16T07:34:02.091Z,62.87
2018-04-16T07:36:28.987Z,58.43
2018-04-16T07:38:55.125Z,59.63
2018-04-16T07:41:21.264Z,65.80
2018-04-16T07:43:47.557Z,60.10
2018-04-16T07:46:13.687Z,54.93
2018-04-16T07:48:39.860Z,64.33
2018-04-16T07:51:07.749Z,53.57
2018-04-16T07:53:33.908Z,59.60
2018-04-16T07:56:00.104Z,58.23
2018-04-16T07:58:26.237Z,51.67
2018-04-16T08:00:52.368Z,57.77
2018-04-16T08:03:18.512Z,62.37
2018-04-16T08:05:44.669Z,66.43
2018-04-16T08:08:10.848Z,60.43
2018-04-16T08:10:37.019Z,61.17
2018-04-16T08:13:03.216Z,61.43
2018-04-16T08:15:29.399Z,62.17
2018-04-16T08:17:56.348Z,57.30
2018-04-16T08:20:22.504Z,62.97
2018-04-16T08:22:48.656Z,54.10
2018-04-16T08:25:14.801Z,58.13
2018-04-16T08:27:41.100Z,64.27
2018-04-16T08:30:07.267Z,54.40
2018-04-16T08:32:34.292Z,62.00
2018-04-16T08:35:01.775Z,59.13
2018-04-16T08:37:28.694Z,59.27
2018-04-16T08:39:54.836Z,60.87
2018-04-16T08:42:21.006Z,59.97
2018-04-16T08:44:47.136Z,59.63
2018-04-16T08:47:13.285Z,54.57
2018-04-16T08:49:40.205Z,54.83
2018-04-16T08:52:06.375Z,59.17
2018-04-16T08:54:32.593Z,62.70
2018-04-16T08:56:58.723Z,56.20
2018-04-16T08:59:24.950Z,58.10
2018-04-16T09:01:51.118Z,56.87
2018-04-16T09:04:18.032Z,58.03
2018-04-16T09:06:44.192Z,55.10
2018-04-16T09:09:11.052Z,56.07
2018-04-16T09:11:37.291Z,50.83
2018-04-16T09:14:03.428Z,48.07
2018-04-16T09:16:29.687Z,51.60
2018-04-16T09:18:55.912Z,47.73
2018-04-16T09:21:22.100Z,49.53
2018-04-16T09:23:48.285Z,45.80
2018-04-16T09:26:15.172Z,41.97
2018-04-16T09:28:41.324Z,39.50
2018-04-16T09:31:08.309Z,45.33
2018-04-16T09:33:35.232Z,49.33
2018-04-16T09:36:01.369Z,48.00
2018-04-16T09:38:28.253Z,46.87
2018-04-16T09:40:54.420Z,44.20
2018-04-16T09:43:20.624Z,43.57
2018-04-16T09:45:46.778Z,44.60
2018-04-16T09:48:12.900Z,43.00
2018-04-16T09:50:39.051Z,49.63
2018-04-16T09:53:05.952Z,48.57
2018-04-16T09:55:32.116Z,45.77
2018-04-16T09:57:58.288Z,47.50
2018-04-16T10:00:27.424Z,48.50
2018-04-16T10:02:57.524Z,41.97
2018-04-16T10:05:23.757Z,43.57
2018-04-16T10:07:49.904Z,42.13
2018-04-16T10:10:16.117Z,44.17
2018-04-16T10:12:42.276Z,46.10
2018-04-16T10:15:09.214Z,46.20
2018-04-16T10:17:35.348Z,46.50
2018-04-16T10:20:02.352Z,39.57
2018-04-16T10:22:28.499Z,40.73
2018-04-16T10:24:54.734Z,55.00
2018-04-16T10:27:20.877Z,41.67
2018-04-16T10:29:47.799Z,41.07
2018-04-16T10:32:13.944Z,45.87
2018-04-16T10:34:40.851Z,44.83
2018-04-16T10:37:07.073Z,44.30
2018-04-16T10:39:33.232Z,50.73
2018-04-16T10:42:01.356Z,42.20
2018-04-16T10:44:27.544Z,39.33
2018-04-16T10:46:54.430Z,41.77
2018-04-16T10:49:20.695Z,40.10
2018-04-16T10:51:46.875Z,40.07
2018-04-16T10:54:13.035Z,37.60
2018-04-16T10:56:39.176Z,37.70
2018-04-16T10:59:05.332Z,36.50
2018-04-16T11:01:32.209Z,36.60
2018-04-16T11:03:58.612Z,36.70
2018-04-16T11:06:25.507Z,37.40
2018-04-16T11:08:51.639Z,37.30
2018-04-16T11:11:17.793Z,37.63
2018-04-16T11:13:44.695Z,34.97
2018-04-16T11:16:10.843Z,38.07
2018-04-16T11:18:36.991Z,36.33
2018-04-16T11:21:03.169Z,38.40
2018-04-16T11:23:29.368Z,38.30
2018-04-16T11:25:55.600Z,33.87
2018-04-16T11:28:21.750Z,30.40
2018-04-16T11:30:47.973Z,30.87
2018-04-16T11:33:14.166Z,29.73
2018-04-16T11:35:41.053Z,31.30
2018-04-16T11:38:07.224Z,30.47
2018-04-16T11:40:34.095Z,31.47
2018-04-16T11:43:00.244Z,30.90
2018-04-16T11:45:26.395Z,28.90
2018-04-16T11:47:53.422Z,30.97
2018-04-16T11:50:19.609Z,32.80
2018-04-16T11:52:46.527Z,28.97
2018-04-16T11:55:12.702Z,27.90
2018-04-16T11:57:38.845Z,30.67
2018-04-16T12:00:05.065Z,23.43
2018-04-16T12:02:31.205Z,29.17
2018-04-16T12:04:57.441Z,17.00
2018-04-16T12:07:23.589Z,18.03
2018-04-16T12:09:49.728Z,19.90
2018-04-16T12:12:16.628Z,16.43
2018-04-16T12:14:42.860Z,18.13
2018-04-16T12:17:09.011Z,16.73
2018-04-16T12:19:35.184Z,18.03
2018-04-16T12:22:01.378Z,17.07
2018-04-16T12:24:28.256Z,17.23
2018-04-16T12:26:54.410Z,17.60
2018-04-16T12:29:20.621Z,17.53
2018-04-16T12:31:46.783Z,16.50
2018-04-16T12:34:12.925Z,17.47
2018-04-16T12:36:39.071Z,15.93
2018-04-16T12:39:05.987Z,16.40
2018-04-16T12:41:32.276Z,17.83
2018-04-16T12:43:58.405Z,28.40
2018-04-16T12:46:26.637Z,24.17
2018-04-16T12:48:53.513Z,14.00
2018-04-16T12:51:19.671Z,15.40
2018-04-16T12:53:45.948Z,14.70
2018-04-16T12:56:12.840Z,10.37
2018-04-16T12:58:39.019Z,15.00
2018-04-16T13:01:05.912Z,15.40
2018-04-16T13:03:32.044Z,18.00
2018-04-16T13:05:58.244Z,19.30
2018-04-16T13:08:24.422Z,18.70
2018-04-16T13:10:50.543Z,7.90
2018-04-16T13:13:16.781Z,7.40
2018-04-16T13:15:43.682Z,7.10
2018-04-16T13:18:09.858Z,11.10
2018-04-16T13:20:36.804Z,6.97
2018-04-16T13:23:03.759Z,8.00
2018-04-16T13:25:30.016Z,6.80
2018-04-16T13:27:56.203Z,7.00
2018-04-16T13:30:23.085Z,7.77
2018-04-16T13:32:49.276Z,10.27
2018-04-16T13:35:17.272Z,10.37
2018-04-16T13:37:43.529Z,9.77
2018-04-16T13:40:09.694Z,6.87
2018-04-16T13:42:36.581Z,8.87
2018-04-16T13:45:02.755Z,10.90
2018-04-16T13:47:28.891Z,9.40
2018-04-16T13:49:56.109Z,8.30
2018-04-16T13:52:22.269Z,9.70
2018-04-16T13:54:49.188Z,9.90
2018-04-16T13:57:15.367Z,8.60
2018-04-16T13:59:41.637Z,7.40
2018-04-16T14:02:08.572Z,9.40
2018-04-16T14:04:34.760Z,9.27
2018-04-16T14:07:01.683Z,10.57
2018-04-16T14:09:28.563Z,12.07
2018-04-16T14:11:54.763Z,10.03
2018-04-16T14:14:21.688Z,13.60
2018-04-16T14:16:51.320Z,13.47
2018-04-16T14:19:18.217Z,10.90
2018-04-16T14:21:44.461Z,10.03
2018-04-16T14:24:12.155Z,10.53
2018-04-16T14:26:38.343Z,9.30
2018-04-16T14:29:04.468Z,12.43
2018-04-16T14:31:30.662Z,11.33
2018-04-16T14:33:56.793Z,12.97
2018-04-16T14:36:26.139Z,12.90
2018-04-16T14:38:52.322Z,11.13
2018-04-16T14:41:18.464Z,10.77
2018-04-16T14:43:44.678Z,9.20
2018-04-16T14:46:14.461Z,9.80
2018-04-16T14:48:41.343Z,7.27
2018-04-16T14:51:07.491Z,8.93
2018-04-16T14:53:33.664Z,7.53
2018-04-16T14:55:59.859Z,6.83
2018-04-16T14:58:26.756Z,7.00
2018-04-16T15:00:52.970Z,9.67
2018-04-16T15:03:19.148Z,7.90
2018-04-16T15:05:46.352Z,10.13
2018-04-16T15:08:12.602Z,8.93
2018-04-16T15:10:38.752Z,9.97
2018-04-16T15:13:06.940Z,8.87
2018-04-16T15:15:33.160Z,9.07
2018-04-16T15:17:59.323Z,10.73
2018-04-16T15:20:26.237Z,11.23
2018-04-16T15:22:52.377Z,11.10
2018-04-16T15:25:19.332Z,9.50
2018-04-16T15:27:46.323Z,8.90
2018-04-16T15:30:12.529Z,9.80
2018-04-16T15:32:38.729Z,9.63
2018-04-16T15:35:05.003Z,9.30
2018-04-16T15:37:33.137Z,8.70
2018-04-16T15:40:00.098Z,6.83
2018-04-16T15:42:26.221Z,8.60
2018-04-16T15:44:52.398Z,8.60
2018-04-16T15:47:18.591Z,6.77
2018-04-16T15:49:44.796Z,10.10
2018-04-16T15:52:10.979Z,9.67
2018-04-16T15:54:37.140Z,11.67
2018-04-16T15:57:04.015Z,11.87
2018-04-16T15:59:30.166Z,13.53
2018-04-16T16:01:56.385Z,15.10
2018-04-16T16:04:22.528Z,13.50
2018-04-16T16:06:49.401Z,13.93
2018-04-16T16:09:16.280Z,14.80
2018-04-16T16:11:42.467Z,13.80
2018-04-16T16:14:09.339Z,16.47
2018-04-16T16:16:35.468Z,15.10
2018-04-16T16:19:01.604Z,16.67
2018-04-16T16:21:27.736Z,13.93
2018-04-16T16:23:54.004Z,14.17
2018-04-16T16:26:20.156Z,14.30
2018-04-16T16:28:47.080Z,14.97
2018-04-16T16:31:13.306Z,14.30
2018-04-16T16:33:39.508Z,14.50
2018-04-16T16:36:05.643Z,13.40
2018-04-16T16:38:31.918Z,14.13
2018-04-16T16:40:58.041Z,13.40
2018-04-16T16:43:24.247Z,13.43
2018-04-16T16:45:50.463Z,14.23
2018-04-16T16:48:16.671Z,13.13
2018-04-16T16:50:42.819Z,14.07
2018-04-16T16:53:09.012Z,15.20
2018-04-16T16:55:36.144Z,13.73
2018-04-16T16:58:02.301Z,15.03
2018-04-16T17:00:28.615Z,14.73
2018-04-16T17:02:54.747Z,17.33
2018-04-16T17:05:22.311Z,14.60
2018-04-16T17:07:48.517Z,15.97
2018-04-16T17:10:14.667Z,15.83
2018-04-16T17:12:40.805Z,17.03
2018-04-16T17:15:07.099Z,16.30
2018-04-16T17:17:33.239Z,15.27
2018-04-16T17:19:59.413Z,15.10
2018-04-16T17:22:25.750Z,12.33
2018-04-16T17:24:52.632Z,11.37
2018-04-16T17:27:19.096Z,9.40
2018-04-16T17:29:46.583Z,9.83
2018-04-16T17:32:13.573Z,10.70
2018-04-16T17:34:39.704Z,10.70
2018-04-16T17:37:07.124Z,11.20
2018-04-16T17:39:34.082Z,13.30
2018-04-16T17:42:00.293Z,11.70
2018-04-16T17:44:26.443Z,11.20
2018-04-16T17:46:52.564Z,12.97
2018-04-16T17:49:18.803Z,12.17
2018-04-16T17:51:45.893Z,14.03
2018-04-16T17:54:12.078Z,11.30
2018-04-16T17:56:38.219Z,12.23
2018-04-16T17:59:04.386Z,12.53
2018-04-16T18:01:30.508Z,11.90
2018-04-16T18:03:57.188Z,12.40
2018-04-16T18:06:23.351Z,11.50
2018-04-16T18:08:49.496Z,10.77
2018-04-16T18:11:15.703Z,14.47
2018-04-16T18:13:41.860Z,11.10
2018-04-16T18:16:07.997Z,12.57
2018-04-16T18:18:34.920Z,10.03
2018-04-16T18:21:01.121Z,12.50
2018-04-16T18:23:29.089Z,10.57
2018-04-16T18:25:56.228Z,12.00
2018-04-16T18:28:23.083Z,11.77
2018-04-16T18:30:50.340Z,11.77
2018-04-16T18:33:16.483Z,10.67
2018-04-16T18:35:42.699Z,12.93
2018-04-16T18:38:08.852Z,11.07
2018-04-16T18:40:35.093Z,10.07
2018-04-16T18:43:01.985Z,10.80
2018-04-16T18:45:28.135Z,9.47
2018-04-16T18:47:54.375Z,11.03
2018-04-16T18:50:20.536Z,14.23
2018-04-16T18:52:46.721Z,13.23
2018-04-16T18:55:12.926Z,13.90
2018-04-16T18:57:39.144Z,10.33
2018-04-16T19:00:05.283Z,12.60
2018-04-16T19:02:31.407Z,13.00
2018-04-16T19:04:57.569Z,11.33
2018-04-16T19:07:23.785Z,12.27
2018-04-16T19:09:49.936Z,12.33
2018-04-16T19:12:16.831Z,11.30
2018-04-16T19:14:43.053Z,11.63
2018-04-16T19:17:09.235Z,13.03
2018-04-16T19:19:36.095Z,11.47
2018-04-16T19:22:02.297Z,13.27
2018-04-16T19:24:29.184Z,12.60
2018-04-16T19:27:01.607Z,13.53
2018-04-16T19:29:28.555Z,17.20
2018-04-16T19:31:54.758Z,14.63
2018-04-16T19:34:26.997Z,17.03
2018-04-16T19:36:53.376Z,17.77
2018-04-16T19:39:19.591Z,18.60
2018-04-16T19:41:51.952Z,16.63
2018-04-16T19:44:18.092Z,16.67
2018-04-16T19:46:44.641Z,15.93
2018-04-16T19:49:17.595Z,10.37
2018-04-16T19:51:44.924Z,11.47
2018-04-16T19:54:11.956Z,10.40
2018-04-16T19:56:44.997Z,12.73
2018-04-16T19:59:11.139Z,6.83
2018-04-16T20:01:37.311Z,7.33
2018-04-16T20:04:03.487Z,11.83
2018-04-16T20:06:29.815Z,10.50
2018-04-16T20:08:56.055Z,8.20
2018-04-16T20:11:22.200Z,9.63
2018-04-16T20:13:49.132Z,6.23
2018-04-16T20:16:15.267Z,6.63
2018-04-16T20:18:42.163Z,6.47
2018-04-16T20:21:08.356Z,11.97
2018-04-16T20:23:35.269Z,9.23
2018-04-16T20:26:01.471Z,11.03
2018-04-16T20:28:27.628Z,8.03
2018-04-16T20:30:53.863Z,6.10
2018-04-16T20:33:20.799Z,9.47
2018-04-16T20:35:47.074Z,6.43
2018-04-16T20:38:13.245Z,7.00
2018-04-16T20:40:39.414Z,7.03
2018-04-16T20:43:05.582Z,6.20
2018-04-16T20:45:32.505Z,6.50
2018-04-16T20:47:58.676Z,4.63
2018-04-16T20:50:24.816Z,7.50
2018-04-16T20:52:51.732Z,8.87
2018-04-16T20:55:17.911Z,5.57
2018-04-16T20:57:44.048Z,8.67
2018-04-16T21:00:10.204Z,7.00
2018-04-16T21:02:36.442Z,8.93
2018-04-16T21:05:03.248Z,11.80
2018-04-16T21:07:29.421Z,8.53
2018-04-16T21:09:55.697Z,11.73
2018-04-16T21:12:21.843Z,10.00
2018-04-16T21:14:47.992Z,9.10
2018-04-16T21:17:14.185Z,9.03
2018-04-16T21:19:40.400Z,9.30
2018-04-16T21:22:06.636Z,7.93
2018-04-16T21:24:32.794Z,9.17
2018-04-16T21:26:58.972Z,9.23
2018-04-16T21:29:25.863Z,8.47
2018-04-16T21:31:52.428Z,12.27
2018-04-16T21:34:19.336Z,10.63
2018-04-16T21:36:45.549Z,7.83
2018-04-16T21:39:11.987Z,8.80
2018-04-16T21:41:38.283Z,11.77
2018-04-16T21:44:05.311Z,8.60
2018-04-16T21:46:31.983Z,7.17
2018-04-16T21:48:58.195Z,9.93
2018-04-16T21:51:25.165Z,11.77
2018-04-16T21:53:51.439Z,8.70
2018-04-16T21:56:17.683Z,10.00
2018-04-16T21:58:43.883Z,9.10
2018-04-16T22:01:10.145Z,9.97
2018-04-16T22:03:37.088Z,9.60
2018-04-16T22:06:04.271Z,17.17
2018-04-16T22:08:30.512Z,9.53
2018-04-16T22:10:57.456Z,9.47
2018-04-16T22:13:23.729Z,6.80
2018-04-16T22:15:49.873Z,12.77
2018-04-16T22:18:16.873Z,7.20
2018-04-16T22:20:43.039Z,9.30
2018-04-16T22:23:10.106Z,11.13
2018-04-16T22:25:37.079Z,13.23
2018-04-16T22:28:04.439Z,12.63
2018-04-16T22:30:30.733Z,15.40
2018-04-16T22:32:57.644Z,6.37
2018-04-16T22:35:23.973Z,11.10
2018-04-16T22:37:50.251Z,14.60
2018-04-16T22:40:16.491Z,10.93
2018-04-16T22:42:42.693Z,12.10
2018-04-16T22:45:09.691Z,10.43
2018-04-16T22:47:35.907Z,7.77
2018-04-16T22:50:02.142Z,12.20
2018-04-16T22:52:29.455Z,12.70
2018-04-16T22:54:56.388Z,8.47
2018-04-16T22:57:24.111Z,14.20
2018-04-16T22:59:50.303Z,11.57
2018-04-16T23:02:16.543Z,13.10
2018-04-16T23:04:42.785Z,14.60
2018-04-16T23:07:09.027Z,14.47
2018-04-16T23:09:35.295Z,10.23
2018-04-16T23:12:02.252Z,15.73
2018-04-16T23:14:28.448Z,6.10
2018-04-16T23:16:54.599Z,11.43
2018-04-16T23:19:21.564Z,12.43
2018-04-16T23:21:47.818Z,13.70
2018-04-16T23:24:14.043Z,9.17
2018-04-16T23:26:41.156Z,10.70
2018-04-16T23:29:07.353Z,12.40
2018-04-16T23:31:33.591Z,13.13
2018-04-16T23:33:59.842Z,16.23
2018-04-16T23:36:26.163Z,16.10
2018-04-16T23:38:53.197Z,12.17
2018-04-16T23:41:20.091Z,13.93
2018-04-16T23:43:46.252Z,8.30
2018-04-16T23:46:12.487Z,13.73
2018-04-16T23:48:38.753Z,8.70
2018-04-16T23:51:05.012Z,14.17
2018-04-16T23:53:31.205Z,9.67
2018-04-16T23:55:57.467Z,10.57
2018-04-16T23:58:23.720Z,10.07
